Time;durP1;ratioP1;P1;durP2;ratioP2;P2;SDS_P1;SDS_P2;PMS_P1;PMS_P2;Temp;Humidity;BMP_temperature;BMP_pressure;BME280_temperature;BME280_humidity;BME280_pressure;Samples;Min_cycle;Max_cycle;Signal;HPM_P1;HPM_P2
2023/10/10 00:01:17;;;;;;;;;;;21.30;57.00;;;;;;5068378;28;19921;-71
2023/10/10 00:03:45;;;;;;;;;;;21.40;57.00;;;;;;5070936;28;19960;-71
2023/10/10 00:06:14;;;;;;;;;;;21.30;57.00;;;;;;5064507;28;19927;-71
2023/10/10 00:08:41;;;;;;;;;;;21.40;57.00;;;;;;5074420;28;19924;-70
2023/10/10 00:11:09;;;;;;;;;;;21.40;57.00;;;;;;5074113;28;19932;-70
2023/10/10 00:13:42;;;;;;;;;;;21.40;57.00;;;;;;5063471;28;19920;-70
2023/10/10 00:16:09;;;;;;;;;;;21.40;57.00;;;;;;5067716;28;19920;-71
2023/10/10 00:18:43;;;;;;;;;;;21.30;57.00;;;;;;5074714;28;19942;-70
2023/10/10 00:21:20;;;;;;;;;;;21.40;57.00;;;;;;5073807;28;19928;-70
2023/10/10 00:23:49;;;;;;;;;;;21.40;57.00;;;;;;5074575;28;19982;-71
2023/10/10 00:26:19;;;;;;;;;;;21.30;56.90;;;;;;5073642;28;19920;-70
2023/10/10 00:28:51;;;;;;;;;;;21.30;57.00;;;;;;5075654;28;19920;-70
2023/10/10 00:31:18;;;;;;;;;;;21.30;56.90;;;;;;5060177;28;19966;-69
2023/10/10 00:33:45;;;;;;;;;;;21.40;57.00;;;;;;5074672;28;19974;-70
2023/10/10 00:36:12;;;;;;;;;;;21.30;56.90;;;;;;5072449;28;19921;-70
2023/10/10 00:38:41;;;;;;;;;;;21.30;56.90;;;;;;5053802;28;19924;-70
2023/10/10 00:41:11;;;;;;;;;;;21.40;57.00;;;;;;5060951;28;19921;-70
2023/10/10 00:43:37;;;;;;;;;;;21.30;57.00;;;;;;5074173;28;19920;-70
2023/10/10 00:46:06;;;;;;;;;;;21.30;57.00;;;;;;5072735;28;19924;-70
2023/10/10 00:48:34;;;;;;;;;;;21.30;56.90;;;;;;5065327;28;19921;-70
2023/10/10 00:51:06;;;;;;;;;;;21.30;56.90;;;;;;5068358;28;19930;-70
2023/10/10 00:53:35;;;;;;;;;;;21.30;56.90;;;;;;5073681;28;19931;-70
2023/10/10 00:56:05;;;;;;;;;;;21.30;56.90;;;;;;5073898;28;19935;-70
2023/10/10 00:58:37;;;;;;;;;;;21.30;57.00;;;;;;5058606;28;19920;-70
2023/10/10 01:01:09;;;;;;;;;;;21.40;57.00;;;;;;5052172;28;19920;-70
2023/10/10 01:03:39;;;;;;;;;;;21.30;56.90;;;;;;5055289;28;20028;-70
2023/10/10 01:06:07;;;;;;;;;;;21.30;56.90;;;;;;5068149;28;19920;-69
2023/10/10 01:08:53;;;;;;;;;;;21.30;56.90;;;;;;5072051;28;19921;-70
2023/10/10 01:11:20;;;;;;;;;;;21.30;56.90;;;;;;5053094;28;19936;-70
2023/10/10 01:13:49;;;;;;;;;;;21.30;56.90;;;;;;5054389;28;19925;-70
2023/10/10 01:16:17;;;;;;;;;;;21.30;56.90;;;;;;5074160;28;19920;-70
2023/10/10 01:18:51;;;;;;;;;;;21.30;56.90;;;;;;5057883;28;20270;-70
2023/10/10 01:21:29;;;;;;;;;;;21.30;56.90;;;;;;5072223;28;19927;-69
2023/10/10 01:24:00;;;;;;;;;;;21.30;56.90;;;;;;5071227;28;20362;-70
2023/10/10 01:26:32;;;;;;;;;;;21.30;56.90;;;;;;5072790;28;19920;-70
2023/10/10 01:29:12;;;;;;;;;;;21.30;56.90;;;;;;5055554;28;19967;-70
2023/10/10 01:31:39;;;;;;;;;;;21.30;56.90;;;;;;5067690;28;19934;-70
2023/10/10 01:34:23;;;;;;;;;;;21.30;56.90;;;;;;5068621;28;20239;-70
2023/10/10 01:36:51;;;;;;;;;;;21.30;56.90;;;;;;5057853;28;19921;-70
2023/10/10 01:39:28;;;;;;;;;;;21.30;56.90;;;;;;5072036;28;19921;-70
2023/10/10 01:41:55;;;;;;;;;;;21.40;57.00;;;;;;5069910;28;19932;-70
2023/10/10 01:44:23;;;;;;;;;;;21.30;56.90;;;;;;5073447;28;19925;-70
2023/10/10 01:46:51;;;;;;;;;;;21.30;56.90;;;;;;5065516;28;19969;-70
2023/10/10 01:49:21;;;;;;;;;;;21.30;56.90;;;;;;5072049;28;19985;-70
2023/10/10 01:51:50;;;;;;;;;;;21.30;56.90;;;;;;5070840;28;19924;-70
2023/10/10 01:54:20;;;;;;;;;;;21.30;56.90;;;;;;5073440;28;19920;-70
2023/10/10 01:56:47;;;;;;;;;;;21.30;56.90;;;;;;5053883;28;19937;-70
2023/10/10 01:59:19;;;;;;;;;;;21.30;56.90;;;;;;5066261;28;20273;-70
2023/10/10 02:01:46;;;;;;;;;;;21.30;56.90;;;;;;5073281;28;19921;-70
2023/10/10 02:04:14;;;;;;;;;;;21.30;56.90;;;;;;5070423;28;19960;-70
2023/10/10 02:06:45;;;;;;;;;;;21.30;56.90;;;;;;5072263;28;19920;-70
2023/10/10 02:09:26;;;;;;;;;;;21.40;57.00;;;;;;5059527;28;19931;-70
2023/10/10 02:11:55;;;;;;;;;;;21.30;56.90;;;;;;5073105;28;20009;-69
2023/10/10 02:14:25;;;;;;;;;;;21.30;56.90;;;;;;5070775;28;19920;-70
2023/10/10 02:16:54;;;;;;;;;;;21.30;56.90;;;;;;5066338;28;19925;-70
2023/10/10 02:19:26;;;;;;;;;;;21.30;56.80;;;;;;5041255;28;20269;-71
2023/10/10 02:22:12;;;;;;;;;;;21.30;56.80;;;;;;5051199;28;20015;-69
2023/10/10 02:24:41;;;;;;;;;;;21.30;56.80;;;;;;5060407;28;19920;-70
2023/10/10 02:27:12;;;;;;;;;;;21.30;56.80;;;;;;5041483;28;19927;-70
2023/10/10 02:29:47;;;;;;;;;;;21.30;56.90;;;;;;5067270;28;19967;-70
2023/10/10 02:32:19;;;;;;;;;;;21.30;56.90;;;;;;5071294;28;19920;-70
2023/10/10 02:34:55;;;;;;;;;;;21.30;56.90;;;;;;5072196;28;19967;-70
2023/10/10 02:37:41;;;;;;;;;;;21.30;56.90;;;;;;5055436;28;19921;-70
2023/10/10 02:40:14;;;;;;;;;;;21.30;56.90;;;;;;5065576;28;19952;-70
2023/10/10 02:42:50;;;;;;;;;;;21.30;56.80;;;;;;5060542;28;19924;-70
2023/10/10 02:45:17;;;;;;;;;;;21.30;56.90;;;;;;5070747;28;19956;-70
2023/10/10 02:47:52;;;;;;;;;;;21.30;56.90;;;;;;5053147;28;19933;-70
2023/10/10 02:50:39;;;;;;;;;;;21.30;56.90;;;;;;5071078;28;19921;-70
2023/10/10 02:53:09;;;;;;;;;;;21.30;56.90;;;;;;5069271;28;19924;-70
2023/10/10 02:55:40;;;;;;;;;;;21.30;56.90;;;;;;5062567;28;19924;-70
2023/10/10 02:58:20;;;;;;;;;;;21.30;56.80;;;;;;5065252;28;19967;-70
2023/10/10 03:00:48;;;;;;;;;;;21.30;56.90;;;;;;5060215;28;19924;-70
2023/10/10 03:03:18;;;;;;;;;;;21.40;57.00;;;;;;5068240;28;19921;-70
2023/10/10 03:05:50;;;;;;;;;;;21.30;56.90;;;;;;5071235;28;19956;-70
2023/10/10 03:08:18;;;;;;;;;;;21.30;56.90;;;;;;5076686;28;20251;-70
2023/10/10 03:10:54;;;;;;;;;;;21.30;56.90;;;;;;5074396;28;19920;-70
2023/10/10 03:13:31;;;;;;;;;;;21.40;57.00;;;;;;5074833;28;19920;-70
2023/10/10 03:16:11;;;;;;;;;;;21.30;56.80;;;;;;5058364;28;20358;-70
2023/10/10 03:18:52;;;;;;;;;;;21.40;56.90;;;;;;5073562;28;19943;-70
2023/10/10 03:21:24;;;;;;;;;;;21.30;56.80;;;;;;5057894;28;19920;-70
2023/10/10 03:23:54;;;;;;;;;;;21.30;56.80;;;;;;5070967;28;19979;-70
2023/10/10 03:26:32;;;;;;;;;;;21.30;56.80;;;;;;5066334;28;19920;-70
2023/10/10 03:29:05;;;;;;;;;;;21.30;56.80;;;;;;5067295;28;19927;-70
2023/10/10 03:31:38;;;;;;;;;;;21.30;56.90;;;;;;5074125;28;19948;-70
2023/10/10 03:34:13;;;;;;;;;;;21.30;57.40;;;;;;5074155;28;19927;-70
2023/10/10 03:36:43;;;;;;;;;;;21.40;57.00;;;;;;5074541;28;19920;-70
2023/10/10 03:39:41;;;;;;;;;;;21.30;56.80;;;;;;5073481;28;19927;-70
2023/10/10 05:25:06;;;;;;;;;;;21.40;56.90;;;;;;5006203;28;19969;-69
2023/10/10 05:27:33;;;;;;;;;;;21.40;56.90;;;;;;5013861;28;19925;-69
2023/10/10 05:30:00;;;;;;;;;;;21.40;56.90;;;;;;5024249;28;19928;-69
2023/10/10 05:32:30;;;;;;;;;;;21.40;56.90;;;;;;5055808;28;19928;-69
2023/10/10 05:34:58;;;;;;;;;;;21.40;57.50;;;;;;5056003;28;19943;-69
2023/10/10 05:37:25;;;;;;;;;;;21.40;57.50;;;;;;5054518;28;19921;-69
2023/10/10 05:39:56;;;;;;;;;;;21.40;56.90;;;;;;5054649;28;20346;-69
2023/10/10 05:42:26;;;;;;;;;;;21.40;56.90;;;;;;5055892;28;19925;-69
2023/10/10 05:44:53;;;;;;;;;;;21.40;56.90;;;;;;5054243;28;19925;-69
2023/10/10 05:47:20;;;;;;;;;;;21.40;56.90;;;;;;5077769;28;19924;-69
2023/10/10 05:49:47;;;;;;;;;;;21.40;56.90;;;;;;5094542;28;19920;-69
2023/10/10 05:52:14;;;;;;;;;;;21.40;56.90;;;;;;5095149;28;19924;-69
2023/10/10 05:54:40;;;;;;;;;;;21.40;56.90;;;;;;5094913;28;19920;-69
2023/10/10 05:57:10;;;;;;;;;;;21.40;56.90;;;;;;5094774;28;19987;-69
2023/10/10 05:59:38;;;;;;;;;;;21.40;56.90;;;;;;5094865;28;20007;-69
2023/10/10 06:02:10;;;;;;;;;;;21.40;56.90;;;;;;5093170;28;20349;-69
2023/10/10 06:04:37;;;;;;;;;;;21.40;56.90;;;;;;5093589;28;19951;-69
2023/10/10 06:07:04;;;;;;;;;;;21.40;56.90;;;;;;5077552;28;19967;-69
2023/10/10 06:09:34;;;;;;;;;;;21.40;56.90;;;;;;5054366;28;19928;-69
2023/10/10 06:12:04;;;;;;;;;;;21.40;56.90;;;;;;5053859;28;19956;-69
2023/10/10 06:14:31;;;;;;;;;;;21.40;56.90;;;;;;5054517;28;19970;-69
2023/10/10 06:16:59;;;;;;;;;;;21.30;56.80;;;;;;5053797;28;19921;-69
2023/10/10 06:19:26;;;;;;;;;;;21.40;56.90;;;;;;5053939;28;19936;-69
2023/10/10 06:21:59;;;;;;;;;;;21.40;56.90;;;;;;5054353;28;19925;-69
2023/10/10 06:24:27;;;;;;;;;;;21.40;56.90;;;;;;5053626;28;19944;-66
2023/10/10 06:27:00;;;;;;;;;;;21.40;56.90;;;;;;5079148;28;20023;-66
2023/10/10 06:29:29;;;;;;;;;;;21.40;57.30;;;;;;5076315;28;20380;-65
2023/10/10 06:31:56;;;;;;;;;;;21.30;57.60;;;;;;5083412;28;19920;-66
2023/10/10 06:34:29;;;;;;;;;;;21.30;57.80;;;;;;5094093;28;20023;-66
2023/10/10 06:36:55;;;;;;;;;;;21.20;57.90;;;;;;5091289;28;19920;-66
2023/10/10 06:39:32;;;;;;;;;;;21.20;58.10;;;;;;5076398;28;21911;-63
2023/10/10 06:41:59;;;;;;;;;;;21.10;58.30;;;;;;5073296;28;19921;-63
2023/10/10 06:44:39;;;;;;;;;;;21.00;58.70;;;;;;5070799;28;19987;-63
2023/10/10 06:47:10;;;;;;;;;;;20.90;58.80;;;;;;5073366;28;19921;-63
2023/10/10 06:49:53;;;;;;;;;;;20.80;58.90;;;;;;5072188;28;19924;-64
2023/10/10 06:52:23;;;;;;;;;;;20.80;59.10;;;;;;5053209;28;19921;-63
2023/10/10 06:54:54;;;;;;;;;;;20.70;59.20;;;;;;5059351;28;19927;-68
2023/10/10 06:57:35;;;;;;;;;;;20.70;59.30;;;;;;5072907;28;19927;-68
2023/10/10 07:00:06;;;;;;;;;;;20.60;59.20;;;;;;5073014;28;19927;-68
2023/10/10 07:02:39;;;;;;;;;;;20.60;59.00;;;;;;5073873;28;19920;-70
2023/10/10 07:05:15;;;;;;;;;;;20.60;58.90;;;;;;5074668;28;19927;-69
2023/10/10 07:07:42;;;;;;;;;;;20.60;58.80;;;;;;5073057;28;20029;-69
2023/10/10 07:10:09;;;;;;;;;;;20.60;58.70;;;;;;5073897;28;19927;-70
2023/10/10 07:12:38;;;;;;;;;;;20.60;58.70;;;;;;5074067;28;20011;-70
2023/10/10 07:15:06;;;;;;;;;;;20.70;58.70;;;;;;5074150;28;19920;-70
2023/10/10 07:17:38;;;;;;;;;;;20.70;58.60;;;;;;5073541;28;19959;-70
2023/10/10 07:22:54;;;;;;;;;;;20.70;58.50;;;;;;5074040;28;19921;-70
2023/10/10 07:25:31;;;;;;;;;;;20.80;58.40;;;;;;5072900;28;20019;-70
2023/10/10 07:28:00;;;;;;;;;;;20.80;58.40;;;;;;5073174;28;19921;-70
2023/10/10 07:30:33;;;;;;;;;;;20.80;58.30;;;;;;5072778;28;19921;-71
2023/10/10 07:33:02;;;;;;;;;;;20.80;58.20;;;;;;5072942;28;19927;-69
2023/10/10 07:35:36;;;;;;;;;;;20.90;58.30;;;;;;5072888;28;19920;-69
2023/10/10 07:38:02;;;;;;;;;;;20.90;58.30;;;;;;5074660;28;20026;-69
2023/10/10 07:40:30;;;;;;;;;;;20.90;58.20;;;;;;5073886;28;19982;-69
2023/10/10 07:42:59;;;;;;;;;;;20.90;58.20;;;;;;5076647;28;19971;-70
2023/10/10 07:45:29;;;;;;;;;;;20.90;58.10;;;;;;5076735;28;19928;-69
2023/10/10 07:51:04;;;;;;;;;;;21.00;58.20;;;;;;5076823;28;19928;-69
2023/10/10 07:53:35;;;;;;;;;;;21.00;58.20;;;;;;5077284;28;19927;-70
2023/10/10 07:56:02;;;;;;;;;;;21.00;58.10;;;;;;5077272;28;19959;-71
2023/10/10 07:58:42;;;;;;;;;;;21.00;58.10;;;;;;5076201;28;20003;-69
2023/10/10 08:01:10;;;;;;;;;;;21.00;58.10;;;;;;5076294;28;19920;-67
2023/10/10 08:03:37;;;;;;;;;;;21.00;58.10;;;;;;5076367;28;19927;-70
2023/10/10 08:06:08;;;;;;;;;;;21.10;58.10;;;;;;5075977;28;19920;-70
2023/10/10 08:08:35;;;;;;;;;;;21.00;58.00;;;;;;5076063;28;19974;-69
2023/10/10 08:11:12;;;;;;;;;;;21.10;58.10;;;;;;5075718;28;19943;-70
2023/10/10 08:13:39;;;;;;;;;;;21.10;58.10;;;;;;5076663;28;20024;-70
2023/10/10 08:16:06;;;;;;;;;;;21.10;58.20;;;;;;5076222;28;19920;-68
2023/10/10 08:18:52;;;;;;;;;;;21.10;58.10;;;;;;5075347;28;19920;-71
2023/10/10 08:21:22;;;;;;;;;;;21.10;58.20;;;;;;5077136;28;19921;-67
2023/10/10 08:23:51;;;;;;;;;;;21.10;58.20;;;;;;5075265;28;19925;-68
2023/10/10 08:26:18;;;;;;;;;;;21.10;58.20;;;;;;5075634;28;19955;-67
2023/10/10 08:28:46;;;;;;;;;;;21.20;58.40;;;;;;5076786;28;19934;-68
2023/10/10 08:31:14;;;;;;;;;;;21.20;58.40;;;;;;5076628;28;19920;-69
2023/10/10 08:33:44;;;;;;;;;;;21.20;58.30;;;;;;5075987;28;19943;-68
2023/10/10 08:36:12;;;;;;;;;;;21.20;58.40;;;;;;5076558;28;20015;-68
2023/10/10 08:38:42;;;;;;;;;;;21.20;58.40;;;;;;5077082;28;20003;-67
2023/10/10 08:41:09;;;;;;;;;;;21.20;58.30;;;;;;5075747;28;19924;-67
2023/10/10 08:43:36;;;;;;;;;;;21.20;58.30;;;;;;5075575;28;20020;-67
2023/10/10 08:46:04;;;;;;;;;;;21.20;58.30;;;;;;5076413;28;19981;-67
2023/10/10 08:48:33;;;;;;;;;;;21.20;58.30;;;;;;5075782;28;19927;-68
2023/10/10 08:51:03;;;;;;;;;;;21.20;58.30;;;;;;5075579;28;19969;-68
2023/10/10 08:53:30;;;;;;;;;;;21.20;58.30;;;;;;5059551;28;19963;-68
2023/10/10 08:55:58;;;;;;;;;;;21.20;58.30;;;;;;5075456;28;19920;-68
2023/10/10 08:58:25;;;;;;;;;;;21.20;58.30;;;;;;5076294;28;19924;-68
2023/10/10 09:00:52;;;;;;;;;;;21.20;58.30;;;;;;5075342;28;19924;-69
2023/10/10 09:03:19;;;;;;;;;;;21.20;58.50;;;;;;5074903;28;19928;-70
2023/10/10 09:05:47;;;;;;;;;;;21.20;58.40;;;;;;5059048;28;19927;-69
2023/10/10 09:08:15;;;;;;;;;;;21.30;58.40;;;;;;5075830;28;19920;-70
2023/10/10 09:10:46;;;;;;;;;;;21.20;58.40;;;;;;5075112;28;19963;-69
2023/10/10 09:13:16;;;;;;;;;;;21.30;58.40;;;;;;5076148;28;19920;-70
2023/10/10 09:15:52;;;;;;;;;;;21.20;58.30;;;;;;5075478;28;19970;-69
2023/10/10 09:18:22;;;;;;;;;;;21.30;58.40;;;;;;5075075;28;19921;-69
2023/10/10 09:20:49;;;;;;;;;;;21.30;58.40;;;;;;5074968;28;19931;-69
2023/10/10 09:23:23;;;;;;;;;;;21.30;58.40;;;;;;5075592;28;19927;-70
2023/10/10 09:26:09;;;;;;;;;;;21.30;58.40;;;;;;5074179;28;19935;-67
2023/10/10 09:28:49;;;;;;;;;;;21.30;58.40;;;;;;5074514;28;19928;-68
2023/10/10 09:31:21;;;;;;;;;;;21.30;58.50;;;;;;5075024;28;19928;-69
2023/10/10 09:33:50;;;;;;;;;;;21.30;58.40;;;;;;5075133;28;19971;-69
2023/10/10 09:36:19;;;;;;;;;;;21.30;58.50;;;;;;5074412;28;19920;-69
2023/10/10 09:38:47;;;;;;;;;;;21.30;58.50;;;;;;5074300;28;19946;-69
2023/10/10 09:41:27;;;;;;;;;;;21.30;58.50;;;;;;5074079;28;20014;-71
2023/10/10 09:44:27;;;;;;;;;;;21.30;58.50;;;;;;5074268;28;19927;-71
2023/10/10 09:47:12;;;;;;;;;;;21.30;58.50;;;;;;5073978;28;20003;-71
2023/10/10 09:49:43;;;;;;;;;;;21.30;58.50;;;;;;5075063;28;19920;-71
2023/10/10 09:54:56;;;;;;;;;;;21.30;58.50;;;;;;5063462;28;19925;-69
2023/10/10 09:57:26;;;;;;;;;;;21.30;58.60;;;;;;5074833;28;19952;-68
2023/10/10 09:59:56;;;;;;;;;;;21.30;58.60;;;;;;5075297;28;19920;-71
2023/10/10 10:02:40;;;;;;;;;;;21.40;58.70;;;;;;5073296;28;19959;-70
2023/10/10 10:05:13;;;;;;;;;;;21.40;58.70;;;;;;5073795;28;19921;-70
2023/10/10 10:07:56;;;;;;;;;;;21.40;58.70;;;;;;5073777;28;19927;-69
2023/10/10 10:10:35;;;;;;;;;;;21.40;58.70;;;;;;5074052;28;19921;-70
2023/10/10 10:13:19;;;;;;;;;;;21.40;58.70;;;;;;5073376;28;19920;-70
2023/10/10 10:15:50;;;;;;;;;;;21.40;58.70;;;;;;5074189;28;19925;-68
2023/10/10 10:18:26;;;;;;;;;;;21.40;58.70;;;;;;5073813;28;19924;-69
2023/10/10 10:21:12;;;;;;;;;;;21.40;58.90;;;;;;5073818;28;19927;-70
2023/10/10 10:23:45;;;;;;;;;;;21.40;58.80;;;;;;5073523;28;19920;-69
2023/10/10 10:26:11;;;;;;;;;;;21.40;58.80;;;;;;5073729;28;19920;-70
2023/10/10 10:28:38;;;;;;;;;;;21.40;58.90;;;;;;5073650;28;19927;-68
2023/10/10 10:31:07;;;;;;;;;;;21.40;58.80;;;;;;5073742;28;19921;-68
2023/10/10 10:33:35;;;;;;;;;;;21.40;58.90;;;;;;5073544;28;20007;-69
2023/10/10 10:36:14;;;;;;;;;;;21.40;58.80;;;;;;5073188;28;19928;-70
2023/10/10 10:39:17;;;;;;;;;;;21.50;58.90;;;;;;5061785;28;19951;-70
2023/10/10 10:41:42;;;;;;;;;;;21.40;58.80;;;;;;5054169;28;19966;-70
2023/10/10 10:44:13;;;;;;;;;;;21.50;58.90;;;;;;5053922;28;20018;-70
2023/10/10 10:46:48;;;;;;;;;;;21.50;58.90;;;;;;5054674;28;19930;-69
2023/10/10 10:49:15;;;;;;;;;;;21.50;58.90;;;;;;5053315;28;19960;-69
2023/10/10 10:51:48;;;;;;;;;;;21.50;58.90;;;;;;5052802;28;19921;-70
2023/10/10 10:54:35;;;;;;;;;;;21.50;59.00;;;;;;5052816;28;19921;-70
2023/10/10 10:57:03;;;;;;;;;;;21.50;58.90;;;;;;5053347;28;19925;-69
2023/10/10 10:59:35;;;;;;;;;;;21.50;59.00;;;;;;5053606;28;19947;-69
2023/10/10 11:02:14;;;;;;;;;;;21.50;59.00;;;;;;5054037;28;19928;-70
2023/10/10 11:04:43;;;;;;;;;;;21.50;59.00;;;;;;5052973;28;19959;-70
2023/10/10 11:07:15;;;;;;;;;;;21.50;59.00;;;;;;5053380;28;19927;-68
2023/10/10 11:09:52;;;;;;;;;;;21.50;59.00;;;;;;5054389;28;19921;-70
2023/10/10 11:12:21;;;;;;;;;;;21.60;59.10;;;;;;5053440;28;19956;-72
2023/10/10 11:14:49;;;;;;;;;;;21.60;59.10;;;;;;5054959;28;20015;-69
2023/10/10 11:17:18;;;;;;;;;;;21.60;59.10;;;;;;5057215;28;19921;-70
2023/10/10 11:19:46;;;;;;;;;;;21.60;59.10;;;;;;5056799;28;19920;-70
2023/10/10 11:22:38;;;;;;;;;;;21.60;59.10;;;;;;5058309;28;19921;-71
2023/10/10 11:25:05;;;;;;;;;;;21.60;59.10;;;;;;5056358;28;20020;-65
2023/10/10 11:27:43;;;;;;;;;;;21.60;59.20;;;;;;5056965;28;19971;-68
2023/10/10 11:30:11;;;;;;;;;;;21.60;59.40;;;;;;5057597;28;19921;-68
2023/10/10 11:32:46;;;;;;;;;;;21.60;59.80;;;;;;5056927;28;19943;-67
2023/10/10 11:35:22;;;;;;;;;;;21.60;59.90;;;;;;5057459;28;20027;-68
2023/10/10 11:37:59;;;;;;;;;;;21.60;60.00;;;;;;5057798;28;19921;-67
2023/10/10 11:40:32;;;;;;;;;;;21.60;60.20;;;;;;5057286;28;19920;-67
2023/10/10 11:42:59;;;;;;;;;;;21.50;60.50;;;;;;5056337;28;19966;-67
2023/10/10 11:45:26;;;;;;;;;;;21.50;60.50;;;;;;5056329;28;19928;-67
2023/10/10 11:47:59;;;;;;;;;;;21.50;60.60;;;;;;5056431;28;19921;-66
2023/10/10 11:50:29;;;;;;;;;;;21.50;60.60;;;;;;5056613;28;19925;-66
2023/10/10 11:52:56;;;;;;;;;;;21.40;60.50;;;;;;5055813;28;19928;-66
2023/10/10 11:55:23;;;;;;;;;;;21.40;60.50;;;;;;5056469;28;19927;-65
2023/10/10 11:57:50;;;;;;;;;;;21.40;60.60;;;;;;5057056;28;19925;-65
2023/10/10 12:00:22;;;;;;;;;;;21.40;60.60;;;;;;5056125;28;19928;-66
2023/10/10 12:02:49;;;;;;;;;;;21.40;60.40;;;;;;5057315;28;20019;-65
2023/10/10 12:08:01;;;;;;;;;;;21.40;60.50;;;;;;5053205;28;19935;-65
2023/10/10 12:10:42;;;;;;;;;;;21.40;60.50;;;;;;5055664;28;20012;-65
2023/10/10 12:13:09;;;;;;;;;;;21.40;60.50;;;;;;5056397;28;19925;-65
2023/10/10 12:15:38;;;;;;;;;;;21.40;60.50;;;;;;5057083;28;20011;-64
2023/10/10 12:18:09;;;;;;;;;;;21.40;60.70;;;;;;5055523;28;19921;-65
2023/10/10 12:20:42;;;;;;;;;;;21.40;60.90;;;;;;5056493;28;19921;-66
2023/10/10 12:23:09;;;;;;;;;;;21.40;60.70;;;;;;5056211;28;20024;-67
2023/10/10 12:25:37;;;;;;;;;;;21.40;60.70;;;;;;5055263;28;19921;-65
2023/10/10 12:28:04;;;;;;;;;;;21.40;60.80;;;;;;5056676;28;19921;-66
2023/10/10 12:30:30;;;;;;;;;;;21.40;60.90;;;;;;5056676;28;19928;-66
2023/10/10 12:32:57;;;;;;;;;;;21.40;60.90;;;;;;5057049;28;19920;-66
2023/10/10 12:35:25;;;;;;;;;;;21.40;60.90;;;;;;5055637;28;20270;-65
2023/10/10 12:38:01;;;;;;;;;;;21.40;60.90;;;;;;5057180;28;19928;-66
2023/10/10 12:40:29;;;;;;;;;;;21.40;60.90;;;;;;5056107;28;19928;-66
2023/10/10 12:42:56;;;;;;;;;;;21.40;61.10;;;;;;5055560;28;19921;-65
2023/10/10 12:45:22;;;;;;;;;;;21.40;61.00;;;;;;5055520;28;19928;-65
2023/10/10 12:47:49;;;;;;;;;;;21.40;60.90;;;;;;5056561;28;19920;-66
2023/10/10 12:50:16;;;;;;;;;;;21.40;60.90;;;;;;5055071;28;19928;-65
2023/10/10 12:52:46;;;;;;;;;;;21.40;60.90;;;;;;5056069;28;19921;-65
2023/10/10 12:55:17;;;;;;;;;;;21.40;60.90;;;;;;5056280;28;19928;-65
2023/10/10 12:57:44;;;;;;;;;;;21.40;60.90;;;;;;5053386;28;19921;-66
2023/10/10 13:00:24;;;;;;;;;;;21.40;60.90;;;;;;5056356;28;20340;-65
2023/10/10 13:02:53;;;;;;;;;;;21.40;60.90;;;;;;5055097;28;19929;-66
2023/10/10 13:05:26;;;;;;;;;;;21.40;60.90;;;;;;5055038;28;19954;-66
2023/10/10 13:07:55;;;;;;;;;;;21.40;60.90;;;;;;5055135;28;20278;-65
2023/10/10 13:10:27;;;;;;;;;;;21.40;61.00;;;;;;5056023;28;19972;-67
2023/10/10 13:12:54;;;;;;;;;;;21.40;61.20;;;;;;5055217;28;20035;-64
2023/10/10 13:15:29;;;;;;;;;;;21.40;61.20;;;;;;5055722;28;19947;-64
2023/10/10 13:20:38;;;;;;;;;;;21.40;61.40;;;;;;5054523;28;20359;-64
2023/10/10 13:23:06;;;;;;;;;;;21.40;61.60;;;;;;5054318;28;19920;-65
2023/10/10 13:25:37;;;;;;;;;;;21.40;61.50;;;;;;5055319;28;19921;-65
2023/10/10 13:28:09;;;;;;;;;;;21.50;61.70;;;;;;5055275;28;19927;-65
2023/10/10 13:30:36;;;;;;;;;;;21.50;61.70;;;;;;5054350;28;20015;-65
2023/10/10 13:33:03;;;;;;;;;;;21.50;61.60;;;;;;5055169;28;19921;-65
2023/10/10 13:35:29;;;;;;;;;;;21.50;61.70;;;;;;5055103;28;19935;-66
2023/10/10 13:37:56;;;;;;;;;;;21.40;61.80;;;;;;5055613;28;19974;-65
2023/10/10 13:40:23;;;;;;;;;;;21.40;61.90;;;;;;5055434;28;19920;-65
2023/10/10 13:42:51;;;;;;;;;;;21.40;61.90;;;;;;5055002;28;19924;-65
2023/10/10 13:45:22;;;;;;;;;;;21.40;62.10;;;;;;5055063;28;19921;-66
2023/10/10 13:47:49;;;;;;;;;;;21.40;62.10;;;;;;5054591;28;19931;-65
2023/10/10 13:50:40;;;;;;;;;;;21.50;62.30;;;;;;5053949;28;19967;-65
2023/10/10 13:53:07;;;;;;;;;;;21.50;62.50;;;;;;5054571;28;19921;-66
2023/10/10 13:55:34;;;;;;;;;;;21.40;62.80;;;;;;5054067;28;19921;-66
2023/10/10 13:58:07;;;;;;;;;;;21.40;63.00;;;;;;5054383;28;19921;-63
2023/10/10 14:00:35;;;;;;;;;;;21.40;63.20;;;;;;5053840;28;19929;-65
2023/10/10 14:03:04;;;;;;;;;;;21.40;63.40;;;;;;5054307;28;19920;-64
2023/10/10 14:05:33;;;;;;;;;;;21.40;63.80;;;;;;5054019;28;19927;-64
2023/10/10 14:08:00;;;;;;;;;;;21.40;63.80;;;;;;5055131;28;19951;-64
2023/10/10 14:10:27;;;;;;;;;;;21.40;64.00;;;;;;5053551;28;19928;-65
2023/10/10 14:12:55;;;;;;;;;;;21.40;64.10;;;;;;5054889;28;19928;-66
2023/10/10 14:15:23;;;;;;;;;;;21.40;64.40;;;;;;5054189;28;19971;-66
2023/10/10 14:17:53;;;;;;;;;;;21.40;64.40;;;;;;5053841;28;19934;-65
2023/10/10 14:20:24;;;;;;;;;;;21.40;64.70;;;;;;5053506;28;19924;-65
2023/10/10 14:22:51;;;;;;;;;;;21.40;65.00;;;;;;5053610;28;19931;-65
2023/10/10 14:25:18;;;;;;;;;;;21.40;65.20;;;;;;5053527;28;19920;-65
2023/10/10 14:27:45;;;;;;;;;;;21.40;65.20;;;;;;5053415;28;19928;-66
2023/10/10 14:30:20;;;;;;;;;;;21.30;65.00;;;;;;5054559;28;19944;-64
2023/10/10 14:32:54;;;;;;;;;;;21.30;64.90;;;;;;5054691;28;19956;-65
2023/10/10 14:35:23;;;;;;;;;;;21.30;65.00;;;;;;5054564;28;19955;-65
2023/10/10 14:37:55;;;;;;;;;;;21.30;64.90;;;;;;5054940;28;19925;-66
2023/10/10 14:40:23;;;;;;;;;;;21.30;64.90;;;;;;5054946;28;19928;-64
2023/10/10 14:42:52;;;;;;;;;;;21.30;64.70;;;;;;5053766;28;19975;-71
2023/10/10 14:45:19;;;;;;;;;;;21.30;64.90;;;;;;5053490;28;19955;-72
2023/10/10 14:47:46;;;;;;;;;;;21.30;64.60;;;;;;5054040;28;19921;-72
2023/10/10 14:50:14;;;;;;;;;;;21.30;64.40;;;;;;5053082;28;19921;-71
2023/10/10 14:52:47;;;;;;;;;;;21.30;64.30;;;;;;5087384;28;19929;-72
2023/10/10 14:55:23;;;;;;;;;;;21.30;64.20;;;;;;5053608;28;19927;-76
2023/10/10 14:57:54;;;;;;;;;;;21.30;64.00;;;;;;5054607;28;19924;-75
2023/10/10 15:00:22;;;;;;;;;;;21.30;64.00;;;;;;5053935;28;19929;-71
2023/10/10 15:02:53;;;;;;;;;;;21.30;63.80;;;;;;5050740;28;19927;-73
2023/10/10 15:05:23;;;;;;;;;;;21.40;63.80;;;;;;5053069;28;19979;-71
2023/10/10 15:07:52;;;;;;;;;;;21.40;63.60;;;;;;5053597;28;19970;-73
2023/10/10 15:10:20;;;;;;;;;;;21.40;63.40;;;;;;5053485;28;19921;-69
2023/10/10 15:12:49;;;;;;;;;;;21.40;63.50;;;;;;5053148;28;19921;-69
2023/10/10 15:15:17;;;;;;;;;;;21.40;63.40;;;;;;5052796;28;19921;-69
2023/10/10 15:17:43;;;;;;;;;;;21.40;63.30;;;;;;5052758;28;20020;-72
2023/10/10 15:20:12;;;;;;;;;;;21.40;63.20;;;;;;5053019;28;19978;-72
2023/10/10 15:22:41;;;;;;;;;;;21.40;63.80;;;;;;5053667;28;19921;-71
2023/10/10 15:25:10;;;;;;;;;;;21.50;63.10;;;;;;5053121;28;19928;-69
2023/10/10 15:27:40;;;;;;;;;;;21.50;63.00;;;;;;5054110;28;19920;-71
2023/10/10 15:30:08;;;;;;;;;;;21.50;63.00;;;;;;5052770;28;19921;-72
2023/10/10 15:32:43;;;;;;;;;;;21.50;63.00;;;;;;5053220;28;19920;-68
2023/10/10 15:35:10;;;;;;;;;;;21.50;63.00;;;;;;5053572;28;20016;-70
2023/10/10 15:37:42;;;;;;;;;;;21.50;62.90;;;;;;5054391;28;19921;-68
2023/10/10 15:40:20;;;;;;;;;;;21.50;62.90;;;;;;5053003;28;19921;-77
2023/10/10 15:42:48;;;;;;;;;;;21.50;62.80;;;;;;5053272;28;19928;-80
2023/10/10 15:45:20;;;;;;;;;;;21.50;62.70;;;;;;5052495;28;20047;-80
2023/10/10 15:47:48;;;;;;;;;;;21.50;62.70;;;;;;5052864;28;19971;-80
2023/10/10 15:50:16;;;;;;;;;;;21.50;62.60;;;;;;5052849;28;19927;-69
2023/10/10 15:52:48;;;;;;;;;;;21.60;62.70;;;;;;5050812;28;19974;-71
2023/10/10 15:55:23;;;;;;;;;;;21.60;62.60;;;;;;5052529;28;19928;-69
2023/10/10 15:57:52;;;;;;;;;;;21.50;62.50;;;;;;5053827;28;19920;-70
2023/10/10 16:00:21;;;;;;;;;;;21.50;62.50;;;;;;5052336;28;19920;-69
2023/10/10 16:02:52;;;;;;;;;;;21.60;62.60;;;;;;5056028;28;19920;-70
2023/10/10 16:05:19;;;;;;;;;;;21.50;62.40;;;;;;5056401;28;19924;-74
2023/10/10 16:07:46;;;;;;;;;;;21.60;62.50;;;;;;5056437;28;19927;-72
2023/10/10 16:10:13;;;;;;;;;;;21.60;62.50;;;;;;5056631;28;19971;-71
2023/10/10 16:12:42;;;;;;;;;;;21.60;62.50;;;;;;5057155;28;20004;-71
2023/10/10 16:15:10;;;;;;;;;;;21.60;62.50;;;;;;5056464;28;20023;-71
2023/10/10 16:17:37;;;;;;;;;;;21.60;62.50;;;;;;5056381;28;19928;-71
2023/10/10 16:20:06;;;;;;;;;;;21.60;62.50;;;;;;5056603;28;19920;-77
2023/10/10 16:22:35;;;;;;;;;;;21.60;62.50;;;;;;5056393;28;19921;-72
2023/10/10 16:25:02;;;;;;;;;;;21.60;62.50;;;;;;5056252;28;20019;-71
2023/10/10 16:27:31;;;;;;;;;;;21.60;62.60;;;;;;5056287;28;20361;-72
2023/10/10 16:30:00;;;;;;;;;;;21.60;62.60;;;;;;5056106;28;20019;-73
2023/10/10 16:32:27;;;;;;;;;;;21.60;62.60;;;;;;5055841;28;19929;-75
2023/10/10 16:34:53;;;;;;;;;;;21.60;62.60;;;;;;5055814;28;19927;-75